sensor_id;sensor_type;location;lat;lon;timestamp;P1;durP1;ratioP1;P2;durP2;ratioP2
72369;SDS011;60343;-32.030;115.880;2023-07-02T00:02:30;0.22;;;0.03;;
72369;SDS011;60343;-32.030;115.880;2023-07-02T00:05:06;0.15;;;0.10;;
72369;SDS011;60343;-32.030;115.880;2023-07-02T00:07:43;0.98;;;0.13;;
72369;SDS011;60343;-32.030;115.880;2023-07-02T00:10:18;1.00;;;0.20;;
72369;SDS011;60343;-32.030;115.880;2023-07-02T00:13:00;0.57;;;0.10;;
72369;SDS011;60343;-32.030;115.880;2023-07-02T00:15:35;1.23;;;0.30;;
72369;SDS011;60343;-32.030;115.880;2023-07-02T00:18:10;0.95;;;0.20;;
72369;SDS011;60343;-32.030;115.880;2023-07-02T00:20:46;1.40;;;0.10;;
72369;SDS011;60343;-32.030;115.880;2023-07-02T00:23:21;0.80;;;0.10;;
72369;SDS011;60343;-32.030;115.880;2023-07-02T00:25:58;0.65;;;0.08;;
72369;SDS011;60343;-32.030;115.880;2023-07-02T00:28:39;0.47;;;0.17;;
72369;SDS011;60343;-32.030;115.880;2023-07-02T00:31:15;0.50;;;0.20;;
72369;SDS011;60343;-32.030;115.880;2023-07-02T00:33:50;0.20;;;0.10;;
72369;SDS011;60343;-32.030;115.880;2023-07-02T00:36:27;1.88;;;0.20;;
72369;SDS011;60343;-32.030;115.880;2023-07-02T00:39:02;0.65;;;0.10;;
72369;SDS011;60343;-32.030;115.880;2023-07-02T00:41:38;1.30;;;0.17;;
72369;SDS011;60343;-32.030;115.880;2023-07-02T00:44:19;0.30;;;0.08;;
72369;SDS011;60343;-32.030;115.880;2023-07-02T00:46:54;0.85;;;0.17;;
72369;SDS011;60343;-32.030;115.880;2023-07-02T00:49:30;0.35;;;0.10;;
72369;SDS011;60343;-32.030;115.880;2023-07-02T00:52:05;0.10;;;0.00;;
72369;SDS011;60343;-32.030;115.880;2023-07-02T00:54:40;0.13;;;0.03;;
72369;SDS011;60343;-32.030;115.880;2023-07-02T00:57:16;0.22;;;0.10;;
72369;SDS011;60343;-32.030;115.880;2023-07-02T01:00:02;0.52;;;0.10;;
72369;SDS011;60343;-32.030;115.880;2023-07-02T01:02:38;0.30;;;0.10;;
72369;SDS011;60343;-32.030;115.880;2023-07-02T01:05:15;2.05;;;0.10;;
72369;SDS011;60343;-32.030;115.880;2023-07-02T01:07:50;0.63;;;0.10;;
72369;SDS011;60343;-32.030;115.880;2023-07-02T01:10:25;0.40;;;0.17;;
72369;SDS011;60343;-32.030;115.880;2023-07-02T01:13:01;0.77;;;0.10;;
72369;SDS011;60343;-32.030;115.880;2023-07-02T01:15:46;0.22;;;0.10;;
72369;SDS011;60343;-32.030;115.880;2023-07-02T01:18:22;0.50;;;0.20;;
72369;SDS011;60343;-32.030;115.880;2023-07-02T01:21:04;1.00;;;0.10;;
72369;SDS011;60343;-32.030;115.880;2023-07-02T01:23:40;0.60;;;0.10;;
72369;SDS011;60343;-32.030;115.880;2023-07-02T01:26:16;0.50;;;0.10;;
72369;SDS011;60343;-32.030;115.880;2023-07-02T01:28:51;1.17;;;0.20;;
72369;SDS011;60343;-32.030;115.880;2023-07-02T01:31:26;0.40;;;0.00;;
72369;SDS011;60343;-32.030;115.880;2023-07-02T01:34:01;0.65;;;0.30;;
72369;SDS011;60343;-32.030;115.880;2023-07-02T01:36:43;1.20;;;0.30;;
72369;SDS011;60343;-32.030;115.880;2023-07-02T01:39:18;1.65;;;0.10;;
72369;SDS011;60343;-32.030;115.880;2023-07-02T01:41:54;0.57;;;0.08;;
72369;SDS011;60343;-32.030;115.880;2023-07-02T01:44:42;1.38;;;0.20;;
72369;SDS011;60343;-32.030;115.880;2023-07-02T01:47:17;0.68;;;0.20;;
72369;SDS011;60343;-32.030;115.880;2023-07-02T01:49:53;0.35;;;0.10;;
72369;SDS011;60343;-32.030;115.880;2023-07-02T01:52:34;0.55;;;0.13;;
72369;SDS011;60343;-32.030;115.880;2023-07-02T01:55:09;0.22;;;0.00;;
72369;SDS011;60343;-32.030;115.880;2023-07-02T01:57:44;0.75;;;0.28;;
72369;SDS011;60343;-32.030;115.880;2023-07-02T02:00:20;0.47;;;0.10;;
72369;SDS011;60343;-32.030;115.880;2023-07-02T02:02:55;3.17;;;0.10;;
72369;SDS011;60343;-32.030;115.880;2023-07-02T02:05:30;0.17;;;0.00;;
72369;SDS011;60343;-32.030;115.880;2023-07-02T02:08:12;0.75;;;0.20;;
72369;SDS011;60343;-32.030;115.880;2023-07-02T02:10:47;0.32;;;0.10;;
72369;SDS011;60343;-32.030;115.880;2023-07-02T02:13:22;0.68;;;0.10;;
72369;SDS011;60343;-32.030;115.880;2023-07-02T02:15:58;0.32;;;0.00;;
72369;SDS011;60343;-32.030;115.880;2023-07-02T02:18:33;0.00;;;0.00;;
72369;SDS011;60343;-32.030;115.880;2023-07-02T02:21:09;0.00;;;0.00;;
72369;SDS011;60343;-32.030;115.880;2023-07-02T02:23:50;1.42;;;0.20;;
72369;SDS011;60343;-32.030;115.880;2023-07-02T02:26:25;0.10;;;0.00;;
72369;SDS011;60343;-32.030;115.880;2023-07-02T02:29:00;0.38;;;0.00;;
72369;SDS011;60343;-32.030;115.880;2023-07-02T02:31:36;0.47;;;0.00;;
72369;SDS011;60343;-32.030;115.880;2023-07-02T02:34:11;3.60;;;0.10;;
72369;SDS011;60343;-32.030;115.880;2023-07-02T02:36:47;3.03;;;0.10;;
72369;SDS011;60343;-32.030;115.880;2023-07-02T02:39:28;0.63;;;0.10;;
72369;SDS011;60343;-32.030;115.880;2023-07-02T02:42:04;0.73;;;0.13;;
72369;SDS011;60343;-32.030;115.880;2023-07-02T02:44:39;0.45;;;0.00;;
72369;SDS011;60343;-32.030;115.880;2023-07-02T02:47:15;1.80;;;0.10;;
72369;SDS011;60343;-32.030;115.880;2023-07-02T02:49:50;1.08;;;0.20;;
72369;SDS011;60343;-32.030;115.880;2023-07-02T02:52:25;0.70;;;0.03;;
72369;SDS011;60343;-32.030;115.880;2023-07-02T02:55:07;0.98;;;0.10;;
72369;SDS011;60343;-32.030;115.880;2023-07-02T02:57:43;0.30;;;0.10;;
72369;SDS011;60343;-32.030;115.880;2023-07-02T03:00:19;0.60;;;0.10;;
72369;SDS011;60343;-32.030;115.880;2023-07-02T03:02:54;0.00;;;0.00;;
72369;SDS011;60343;-32.030;115.880;2023-07-02T03:05:29;0.20;;;0.00;;
72369;SDS011;60343;-32.030;115.880;2023-07-02T03:08:05;0.13;;;0.03;;
72369;SDS011;60343;-32.030;115.880;2023-07-02T03:10:46;0.30;;;0.10;;
72369;SDS011;60343;-32.030;115.880;2023-07-02T03:13:21;0.35;;;0.00;;
72369;SDS011;60343;-32.030;115.880;2023-07-02T03:15:56;0.40;;;0.10;;
72369;SDS011;60343;-32.030;115.880;2023-07-02T03:18:32;0.77;;;0.10;;
72369;SDS011;60343;-32.030;115.880;2023-07-02T03:21:08;1.95;;;0.08;;
72369;SDS011;60343;-32.030;115.880;2023-07-02T03:23:43;0.22;;;0.10;;
72369;SDS011;60343;-32.030;115.880;2023-07-02T03:26:25;0.60;;;0.00;;
72369;SDS011;60343;-32.030;115.880;2023-07-02T03:29:00;0.45;;;0.10;;
72369;SDS011;60343;-32.030;115.880;2023-07-02T03:31:35;1.02;;;0.00;;
72369;SDS011;60343;-32.030;115.880;2023-07-02T03:34:11;0.00;;;0.00;;
72369;SDS011;60343;-32.030;115.880;2023-07-02T03:36:46;0.65;;;0.15;;
72369;SDS011;60343;-32.030;115.880;2023-07-02T03:39:21;0.20;;;0.10;;
72369;SDS011;60343;-32.030;115.880;2023-07-02T03:42:04;0.25;;;0.00;;
72369;SDS011;60343;-32.030;115.880;2023-07-02T03:44:40;1.05;;;0.00;;
72369;SDS011;60343;-32.030;115.880;2023-07-02T03:47:15;0.32;;;0.00;;
72369;SDS011;60343;-32.030;115.880;2023-07-02T03:49:50;0.05;;;0.00;;
72369;SDS011;60343;-32.030;115.880;2023-07-02T03:52:26;0.20;;;0.00;;
72369;SDS011;60343;-32.030;115.880;2023-07-02T03:55:01;0.75;;;0.10;;
72369;SDS011;60343;-32.030;115.880;2023-07-02T03:57:42;0.88;;;0.10;;
72369;SDS011;60343;-32.030;115.880;2023-07-02T04:00:18;1.98;;;0.10;;
72369;SDS011;60343;-32.030;115.880;2023-07-02T04:02:53;0.17;;;0.00;;
72369;SDS011;60343;-32.030;115.880;2023-07-02T04:05:29;0.20;;;0.00;;
72369;SDS011;60343;-32.030;115.880;2023-07-02T04:08:04;0.40;;;0.10;;
72369;SDS011;60343;-32.030;115.880;2023-07-02T04:10:40;0.03;;;0.00;;
72369;SDS011;60343;-32.030;115.880;2023-07-02T04:13:21;0.22;;;0.00;;
72369;SDS011;60343;-32.030;115.880;2023-07-02T04:15:56;4.20;;;0.00;;
72369;SDS011;60343;-32.030;115.880;2023-07-02T04:18:31;0.55;;;0.10;;
72369;SDS011;60343;-32.030;115.880;2023-07-02T04:21:07;0.00;;;0.00;;
72369;SDS011;60343;-32.030;115.880;2023-07-02T04:23:42;0.32;;;0.00;;
72369;SDS011;60343;-32.030;115.880;2023-07-02T04:26:17;2.38;;;0.00;;
72369;SDS011;60343;-32.030;115.880;2023-07-02T04:28:59;0.20;;;0.00;;
72369;SDS011;60343;-32.030;115.880;2023-07-02T04:31:34;0.08;;;0.00;;
72369;SDS011;60343;-32.030;115.880;2023-07-02T04:34:10;0.35;;;0.03;;
72369;SDS011;60343;-32.030;115.880;2023-07-02T04:36:47;0.03;;;0.00;;
72369;SDS011;60343;-32.030;115.880;2023-07-02T04:39:23;0.50;;;0.10;;
72369;SDS011;60343;-32.030;115.880;2023-07-02T04:41:58;1.08;;;0.00;;
72369;SDS011;60343;-32.030;115.880;2023-07-02T04:44:42;0.20;;;0.00;;
72369;SDS011;60343;-32.030;115.880;2023-07-02T04:47:23;0.30;;;0.03;;
72369;SDS011;60343;-32.030;115.880;2023-07-02T04:50:04;0.10;;;0.00;;
72369;SDS011;60343;-32.030;115.880;2023-07-02T04:52:39;0.98;;;0.10;;
72369;SDS011;60343;-32.030;115.880;2023-07-02T04:55:14;1.25;;;0.20;;
72369;SDS011;60343;-32.030;115.880;2023-07-02T04:57:50;0.88;;;0.10;;
72369;SDS011;60343;-32.030;115.880;2023-07-02T05:00:31;1.52;;;0.05;;
72369;SDS011;60343;-32.030;115.880;2023-07-02T05:03:06;0.77;;;0.00;;
72369;SDS011;60343;-32.030;115.880;2023-07-02T05:05:41;0.28;;;0.00;;
72369;SDS011;60343;-32.030;115.880;2023-07-02T05:08:17;0.20;;;0.00;;
72369;SDS011;60343;-32.030;115.880;2023-07-02T05:10:52;0.20;;;0.03;;
72369;SDS011;60343;-32.030;115.880;2023-07-02T05:13:27;0.10;;;0.00;;
72369;SDS011;60343;-32.030;115.880;2023-07-02T05:16:09;0.13;;;0.00;;
72369;SDS011;60343;-32.030;115.880;2023-07-02T05:18:44;0.10;;;0.00;;
72369;SDS011;60343;-32.030;115.880;2023-07-02T05:21:19;1.58;;;0.10;;
72369;SDS011;60343;-32.030;115.880;2023-07-02T05:23:55;0.43;;;0.00;;
72369;SDS011;60343;-32.030;115.880;2023-07-02T05:26:30;0.10;;;0.00;;
72369;SDS011;60343;-32.030;115.880;2023-07-02T05:29:06;0.17;;;0.00;;
72369;SDS011;60343;-32.030;115.880;2023-07-02T05:31:47;0.10;;;0.00;;
72369;SDS011;60343;-32.030;115.880;2023-07-02T05:34:22;0.35;;;0.00;;
72369;SDS011;60343;-32.030;115.880;2023-07-02T05:36:58;1.02;;;0.00;;
72369;SDS011;60343;-32.030;115.880;2023-07-02T05:39:34;0.63;;;0.00;;
72369;SDS011;60343;-32.030;115.880;2023-07-02T05:42:09;1.08;;;0.10;;
72369;SDS011;60343;-32.030;115.880;2023-07-02T05:44:44;0.60;;;0.10;;
72369;SDS011;60343;-32.030;115.880;2023-07-02T05:47:26;0.38;;;0.00;;
72369;SDS011;60343;-32.030;115.880;2023-07-02T05:50:01;0.30;;;0.00;;
72369;SDS011;60343;-32.030;115.880;2023-07-02T05:52:36;0.35;;;0.00;;
72369;SDS011;60343;-32.030;115.880;2023-07-02T05:55:12;0.10;;;0.00;;
72369;SDS011;60343;-32.030;115.880;2023-07-02T05:57:47;0.20;;;0.00;;
72369;SDS011;60343;-32.030;115.880;2023-07-02T06:00:23;1.00;;;0.00;;
72369;SDS011;60343;-32.030;115.880;2023-07-02T06:03:04;0.10;;;0.00;;
72369;SDS011;60343;-32.030;115.880;2023-07-02T06:05:46;0.80;;;0.00;;
72369;SDS011;60343;-32.030;115.880;2023-07-02T06:08:22;1.23;;;0.00;;
72369;SDS011;60343;-32.030;115.880;2023-07-02T06:10:57;0.00;;;0.00;;
72369;SDS011;60343;-32.030;115.880;2023-07-02T06:13:32;0.30;;;0.10;;
72369;SDS011;60343;-32.030;115.880;2023-07-02T06:16:07;0.20;;;0.00;;
72369;SDS011;60343;-32.030;115.880;2023-07-02T06:18:49;0.57;;;0.08;;
72369;SDS011;60343;-32.030;115.880;2023-07-02T06:21:24;2.28;;;0.10;;
72369;SDS011;60343;-32.030;115.880;2023-07-02T06:24:00;1.02;;;0.20;;
72369;SDS011;60343;-32.030;115.880;2023-07-02T06:26:35;0.00;;;0.00;;
72369;SDS011;60343;-32.030;115.880;2023-07-02T06:29:11;1.23;;;0.10;;
72369;SDS011;60343;-32.030;115.880;2023-07-02T06:31:46;0.10;;;0.00;;
72369;SDS011;60343;-32.030;115.880;2023-07-02T06:34:27;0.30;;;0.00;;
72369;SDS011;60343;-32.030;115.880;2023-07-02T06:37:04;0.25;;;0.00;;
72369;SDS011;60343;-32.030;115.880;2023-07-02T06:39:39;0.85;;;0.00;;
72369;SDS011;60343;-32.030;115.880;2023-07-02T06:42:14;0.03;;;0.00;;
72369;SDS011;60343;-32.030;115.880;2023-07-02T06:44:50;0.13;;;0.00;;
72369;SDS011;60343;-32.030;115.880;2023-07-02T06:47:25;0.28;;;0.00;;
72369;SDS011;60343;-32.030;115.880;2023-07-02T06:50:06;1.02;;;0.10;;
72369;SDS011;60343;-32.030;115.880;2023-07-02T06:52:42;0.52;;;0.03;;
72369;SDS011;60343;-32.030;115.880;2023-07-02T06:55:17;0.00;;;0.00;;
72369;SDS011;60343;-32.030;115.880;2023-07-02T06:57:53;0.00;;;0.00;;
72369;SDS011;60343;-32.030;115.880;2023-07-02T07:00:30;1.48;;;0.10;;
72369;SDS011;60343;-32.030;115.880;2023-07-02T07:03:07;0.00;;;0.00;;
72369;SDS011;60343;-32.030;115.880;2023-07-02T07:05:48;1.02;;;0.00;;
72369;SDS011;60343;-32.030;115.880;2023-07-02T07:08:23;0.10;;;0.00;;
72369;SDS011;60343;-32.030;115.880;2023-07-02T07:10:58;2.05;;;0.10;;
72369;SDS011;60343;-32.030;115.880;2023-07-02T07:13:34;0.35;;;0.00;;
72369;SDS011;60343;-32.030;115.880;2023-07-02T07:16:10;0.08;;;0.00;;
72369;SDS011;60343;-32.030;115.880;2023-07-02T07:18:45;0.57;;;0.10;;
72369;SDS011;60343;-32.030;115.880;2023-07-02T07:21:26;0.95;;;0.00;;
72369;SDS011;60343;-32.030;115.880;2023-07-02T07:24:02;0.13;;;0.00;;
72369;SDS011;60343;-32.030;115.880;2023-07-02T07:26:37;0.45;;;0.00;;
72369;SDS011;60343;-32.030;115.880;2023-07-02T07:29:13;0.38;;;0.10;;
72369;SDS011;60343;-32.030;115.880;2023-07-02T07:31:48;2.30;;;0.10;;
72369;SDS011;60343;-32.030;115.880;2023-07-02T07:34:23;1.20;;;0.00;;
72369;SDS011;60343;-32.030;115.880;2023-07-02T07:37:05;1.40;;;0.10;;
72369;SDS011;60343;-32.030;115.880;2023-07-02T07:39:40;1.08;;;0.10;;
72369;SDS011;60343;-32.030;115.880;2023-07-02T07:42:16;0.30;;;0.00;;
72369;SDS011;60343;-32.030;115.880;2023-07-02T07:44:51;0.75;;;0.10;;
72369;SDS011;60343;-32.030;115.880;2023-07-02T07:47:26;1.13;;;0.10;;
72369;SDS011;60343;-32.030;115.880;2023-07-02T07:50:01;0.75;;;0.05;;
72369;SDS011;60343;-32.030;115.880;2023-07-02T07:52:44;0.40;;;0.08;;
72369;SDS011;60343;-32.030;115.880;2023-07-02T07:55:19;0.43;;;0.10;;
72369;SDS011;60343;-32.030;115.880;2023-07-02T07:57:54;0.80;;;0.40;;
72369;SDS011;60343;-32.030;115.880;2023-07-02T08:00:30;1.33;;;0.50;;
72369;SDS011;60343;-32.030;115.880;2023-07-02T08:03:05;1.45;;;0.30;;
72369;SDS011;60343;-32.030;115.880;2023-07-02T08:05:40;0.70;;;0.32;;
72369;SDS011;60343;-32.030;115.880;2023-07-02T08:08:21;2.00;;;0.70;;
72369;SDS011;60343;-32.030;115.880;2023-07-02T08:10:56;1.85;;;0.70;;
72369;SDS011;60343;-32.030;115.880;2023-07-02T08:13:32;4.78;;;0.90;;
72369;SDS011;60343;-32.030;115.880;2023-07-02T08:16:07;3.85;;;1.20;;
72369;SDS011;60343;-32.030;115.880;2023-07-02T08:18:42;3.70;;;1.33;;
72369;SDS011;60343;-32.030;115.880;2023-07-02T08:21:18;3.55;;;1.60;;
72369;SDS011;60343;-32.030;115.880;2023-07-02T08:23:59;3.17;;;1.50;;
72369;SDS011;60343;-32.030;115.880;2023-07-02T08:26:34;3.55;;;1.30;;
72369;SDS011;60343;-32.030;115.880;2023-07-02T08:29:10;3.25;;;1.35;;
72369;SDS011;60343;-32.030;115.880;2023-07-02T08:31:46;4.03;;;1.30;;
72369;SDS011;60343;-32.030;115.880;2023-07-02T08:34:21;4.10;;;1.40;;
72369;SDS011;60343;-32.030;115.880;2023-07-02T08:36:56;2.63;;;1.30;;
72369;SDS011;60343;-32.030;115.880;2023-07-02T08:39:37;2.92;;;1.30;;
72369;SDS011;60343;-32.030;115.880;2023-07-02T08:42:13;3.15;;;1.33;;
72369;SDS011;60343;-32.030;115.880;2023-07-02T08:44:53;3.17;;;1.23;;
72369;SDS011;60343;-32.030;115.880;2023-07-02T08:47:29;3.80;;;1.40;;
72369;SDS011;60343;-32.030;115.880;2023-07-02T08:50:04;3.25;;;1.30;;
72369;SDS011;60343;-32.030;115.880;2023-07-02T08:52:40;2.67;;;1.27;;
72369;SDS011;60343;-32.030;115.880;2023-07-02T08:55:22;3.10;;;1.50;;
72369;SDS011;60343;-32.030;115.880;2023-07-02T08:57:58;3.83;;;1.60;;
72369;SDS011;60343;-32.030;115.880;2023-07-02T09:00:33;3.08;;;1.33;;
72369;SDS011;60343;-32.030;115.880;2023-07-02T09:03:12;4.28;;;2.00;;
72369;SDS011;60343;-32.030;115.880;2023-07-02T09:05:52;4.43;;;2.00;;
72369;SDS011;60343;-32.030;115.880;2023-07-02T09:08:28;4.38;;;1.88;;
72369;SDS011;60343;-32.030;115.880;2023-07-02T09:11:13;4.72;;;1.83;;
72369;SDS011;60343;-32.030;115.880;2023-07-02T09:13:50;3.80;;;1.80;;
72369;SDS011;60343;-32.030;115.880;2023-07-02T09:16:27;3.88;;;1.80;;
72369;SDS011;60343;-32.030;115.880;2023-07-02T09:19:06;3.90;;;1.65;;
72369;SDS011;60343;-32.030;115.880;2023-07-02T09:21:42;4.22;;;1.80;;
72369;SDS011;60343;-32.030;115.880;2023-07-02T09:24:19;4.28;;;1.80;;
72369;SDS011;60343;-32.030;115.880;2023-07-02T09:27:01;3.78;;;1.52;;
72369;SDS011;60343;-32.030;115.880;2023-07-02T09:29:37;3.60;;;1.60;;
72369;SDS011;60343;-32.030;115.880;2023-07-02T09:32:12;5.35;;;2.05;;
72369;SDS011;60343;-32.030;115.880;2023-07-02T09:34:57;4.03;;;1.55;;
72369;SDS011;60343;-32.030;115.880;2023-07-02T09:37:32;3.90;;;1.60;;
72369;SDS011;60343;-32.030;115.880;2023-07-02T09:40:08;4.72;;;1.60;;
72369;SDS011;60343;-32.030;115.880;2023-07-02T09:42:50;5.25;;;1.40;;
72369;SDS011;60343;-32.030;115.880;2023-07-02T09:45:25;3.47;;;1.20;;
72369;SDS011;60343;-32.030;115.880;2023-07-02T09:48:01;3.28;;;1.13;;
72369;SDS011;60343;-32.030;115.880;2023-07-02T09:50:37;3.25;;;1.30;;
72369;SDS011;60343;-32.030;115.880;2023-07-02T09:53:13;5.18;;;1.30;;
72369;SDS011;60343;-32.030;115.880;2023-07-02T09:55:48;3.30;;;1.30;;
72369;SDS011;60343;-32.030;115.880;2023-07-02T09:58:30;3.50;;;1.10;;
72369;SDS011;60343;-32.030;115.880;2023-07-02T10:01:05;4.40;;;1.27;;
72369;SDS011;60343;-32.030;115.880;2023-07-02T10:03:40;3.53;;;1.20;;
72369;SDS011;60343;-32.030;115.880;2023-07-02T10:06:16;4.55;;;1.33;;
72369;SDS011;60343;-32.030;115.880;2023-07-02T10:08:54;3.30;;;1.40;;
72369;SDS011;60343;-32.030;115.880;2023-07-02T10:11:35;4.05;;;1.33;;
72369;SDS011;60343;-32.030;115.880;2023-07-02T10:14:16;3.72;;;1.65;;
72369;SDS011;60343;-32.030;115.880;2023-07-02T10:16:52;4.68;;;1.85;;
72369;SDS011;60343;-32.030;115.880;2023-07-02T10:19:28;4.85;;;1.67;;
72369;SDS011;60343;-32.030;115.880;2023-07-02T10:22:03;4.78;;;1.83;;
72369;SDS011;60343;-32.030;115.880;2023-07-02T10:24:49;4.05;;;1.60;;
72369;SDS011;60343;-32.030;115.880;2023-07-02T10:27:36;3.97;;;1.58;;
72369;SDS011;60343;-32.030;115.880;2023-07-02T10:30:18;4.18;;;1.70;;
72369;SDS011;60343;-32.030;115.880;2023-07-02T10:33:10;4.05;;;1.35;;
72369;SDS011;60343;-32.030;115.880;2023-07-02T10:35:47;4.45;;;1.80;;
72369;SDS011;60343;-32.030;115.880;2023-07-02T10:38:23;5.13;;;1.40;;
72369;SDS011;60343;-32.030;115.880;2023-07-02T10:40:59;4.32;;;1.60;;
72369;SDS011;60343;-32.030;115.880;2023-07-02T10:43:35;3.78;;;1.48;;
72369;SDS011;60343;-32.030;115.880;2023-07-02T10:46:17;3.55;;;1.30;;
72369;SDS011;60343;-32.030;115.880;2023-07-02T10:48:54;3.78;;;1.42;;
72369;SDS011;60343;-32.030;115.880;2023-07-02T10:51:30;3.92;;;1.50;;
72369;SDS011;60343;-32.030;115.880;2023-07-02T10:54:06;5.80;;;1.60;;
72369;SDS011;60343;-32.030;115.880;2023-07-02T10:56:50;4.30;;;1.55;;
72369;SDS011;60343;-32.030;115.880;2023-07-02T10:59:38;4.00;;;1.50;;
72369;SDS011;60343;-32.030;115.880;2023-07-02T11:02:23;3.40;;;1.33;;
72369;SDS011;60343;-32.030;115.880;2023-07-02T11:05:07;4.55;;;1.60;;
72369;SDS011;60343;-32.030;115.880;2023-07-02T11:07:43;3.83;;;1.30;;
72369;SDS011;60343;-32.030;115.880;2023-07-02T11:10:23;4.28;;;1.33;;
72369;SDS011;60343;-32.030;115.880;2023-07-02T11:12:58;3.20;;;1.33;;
72369;SDS011;60343;-32.030;115.880;2023-07-02T11:15:44;4.45;;;1.40;;
72369;SDS011;60343;-32.030;115.880;2023-07-02T11:18:29;3.95;;;1.50;;
72369;SDS011;60343;-32.030;115.880;2023-07-02T11:21:09;3.25;;;1.40;;
72369;SDS011;60343;-32.030;115.880;2023-07-02T11:23:45;4.63;;;1.88;;
72369;SDS011;60343;-32.030;115.880;2023-07-02T11:26:20;4.88;;;2.00;;
72369;SDS011;60343;-32.030;115.880;2023-07-02T11:28:56;7.47;;;2.00;;
72369;SDS011;60343;-32.030;115.880;2023-07-02T11:31:32;4.85;;;2.08;;
72369;SDS011;60343;-32.030;115.880;2023-07-02T11:34:17;3.55;;;1.60;;
72369;SDS011;60343;-32.030;115.880;2023-07-02T11:36:53;3.50;;;1.42;;
72369;SDS011;60343;-32.030;115.880;2023-07-02T11:39:29;4.63;;;1.60;;
72369;SDS011;60343;-32.030;115.880;2023-07-02T11:42:05;4.10;;;1.55;;
72369;SDS011;60343;-32.030;115.880;2023-07-02T11:44:41;4.45;;;1.52;;
72369;SDS011;60343;-32.030;115.880;2023-07-02T11:47:16;5.57;;;1.48;;
72369;SDS011;60343;-32.030;115.880;2023-07-02T11:49:57;6.15;;;1.80;;
72369;SDS011;60343;-32.030;115.880;2023-07-02T11:52:32;5.72;;;1.73;;
72369;SDS011;60343;-32.030;115.880;2023-07-02T11:55:08;6.28;;;1.73;;
72369;SDS011;60343;-32.030;115.880;2023-07-02T11:57:44;4.45;;;1.73;;
72369;SDS011;60343;-32.030;115.880;2023-07-02T12:00:19;5.97;;;1.88;;
72369;SDS011;60343;-32.030;115.880;2023-07-02T12:02:54;6.05;;;1.98;;
72369;SDS011;60343;-32.030;115.880;2023-07-02T12:05:36;6.47;;;2.50;;
72369;SDS011;60343;-32.030;115.880;2023-07-02T12:08:11;6.80;;;2.15;;
72369;SDS011;60343;-32.030;115.880;2023-07-02T12:10:47;7.53;;;2.38;;
72369;SDS011;60343;-32.030;115.880;2023-07-02T12:13:24;6.38;;;2.25;;
72369;SDS011;60343;-32.030;115.880;2023-07-02T12:15:59;5.32;;;2.10;;
72369;SDS011;60343;-32.030;115.880;2023-07-02T12:18:35;7.18;;;2.40;;
72369;SDS011;60343;-32.030;115.880;2023-07-02T12:21:16;6.38;;;2.17;;
72369;SDS011;60343;-32.030;115.880;2023-07-02T12:23:51;7.57;;;2.72;;
72369;SDS011;60343;-32.030;115.880;2023-07-02T12:26:27;6.43;;;2.20;;
72369;SDS011;60343;-32.030;115.880;2023-07-02T12:29:02;5.75;;;2.13;;
72369;SDS011;60343;-32.030;115.880;2023-07-02T12:31:38;7.07;;;2.83;;
72369;SDS011;60343;-32.030;115.880;2023-07-02T12:34:13;7.57;;;2.72;;
72369;SDS011;60343;-32.030;115.880;2023-07-02T12:36:54;6.50;;;2.88;;
72369;SDS011;60343;-32.030;115.880;2023-07-02T12:39:30;6.47;;;2.50;;
72369;SDS011;60343;-32.030;115.880;2023-07-02T12:42:05;8.07;;;2.80;;
72369;SDS011;60343;-32.030;115.880;2023-07-02T12:44:41;5.93;;;2.53;;
72369;SDS011;60343;-32.030;115.880;2023-07-02T12:47:16;7.95;;;3.13;;
72369;SDS011;60343;-32.030;115.880;2023-07-02T12:49:51;10.35;;;3.17;;
72369;SDS011;60343;-32.030;115.880;2023-07-02T12:52:33;7.97;;;3.22;;
72369;SDS011;60343;-32.030;115.880;2023-07-02T12:55:08;9.75;;;3.10;;
72369;SDS011;60343;-32.030;115.880;2023-07-02T12:57:44;9.18;;;3.53;;
72369;SDS011;60343;-32.030;115.880;2023-07-02T13:00:19;8.48;;;3.28;;
72369;SDS011;60343;-32.030;115.880;2023-07-02T13:02:54;9.77;;;3.80;;
72369;SDS011;60343;-32.030;115.880;2023-07-02T13:05:30;8.00;;;3.72;;
72369;SDS011;60343;-32.030;115.880;2023-07-02T13:08:12;8.88;;;3.83;;
72369;SDS011;60343;-32.030;115.880;2023-07-02T13:10:48;9.82;;;3.97;;
72369;SDS011;60343;-32.030;115.880;2023-07-02T13:13:23;10.82;;;3.50;;
72369;SDS011;60343;-32.030;115.880;2023-07-02T13:15:58;8.55;;;3.80;;
72369;SDS011;60343;-32.030;115.880;2023-07-02T13:18:34;7.65;;;3.15;;
72369;SDS011;60343;-32.030;115.880;2023-07-02T13:21:09;10.35;;;4.07;;
72369;SDS011;60343;-32.030;115.880;2023-07-02T13:23:50;9.43;;;4.15;;
72369;SDS011;60343;-32.030;115.880;2023-07-02T13:26:26;13.85;;;4.18;;
72369;SDS011;60343;-32.030;115.880;2023-07-02T13:29:01;13.93;;;4.43;;
72369;SDS011;60343;-32.030;115.880;2023-07-02T13:31:36;8.52;;;3.35;;
72369;SDS011;60343;-32.030;115.880;2023-07-02T13:34:12;11.32;;;4.60;;
72369;SDS011;60343;-32.030;115.880;2023-07-02T13:36:47;9.82;;;4.05;;
72369;SDS011;60343;-32.030;115.880;2023-07-02T13:39:30;14.00;;;4.40;;
72369;SDS011;60343;-32.030;115.880;2023-07-02T13:42:05;12.38;;;4.40;;
72369;SDS011;60343;-32.030;115.880;2023-07-02T13:44:41;10.40;;;4.00;;
72369;SDS011;60343;-32.030;115.880;2023-07-02T13:47:17;7.40;;;3.30;;
72369;SDS011;60343;-32.030;115.880;2023-07-02T13:49:52;11.85;;;3.75;;
72369;SDS011;60343;-32.030;115.880;2023-07-02T13:52:27;8.90;;;3.72;;
72369;SDS011;60343;-32.030;115.880;2023-07-02T13:55:09;10.23;;;4.03;;
72369;SDS011;60343;-32.030;115.880;2023-07-02T13:57:44;10.45;;;3.90;;
72369;SDS011;60343;-32.030;115.880;2023-07-02T14:00:26;10.55;;;3.75;;
72369;SDS011;60343;-32.030;115.880;2023-07-02T14:03:02;9.57;;;2.97;;
72369;SDS011;60343;-32.030;115.880;2023-07-02T14:05:38;9.93;;;3.58;;
72369;SDS011;60343;-32.030;115.880;2023-07-02T14:08:13;9.90;;;3.20;;
72369;SDS011;60343;-32.030;115.880;2023-07-02T14:10:49;10.20;;;3.70;;
72369;SDS011;60343;-32.030;115.880;2023-07-02T14:13:24;10.10;;;3.25;;
72369;SDS011;60343;-32.030;115.880;2023-07-02T14:16:05;11.40;;;3.30;;
72369;SDS011;60343;-32.030;115.880;2023-07-02T14:18:40;10.32;;;3.15;;
72369;SDS011;60343;-32.030;115.880;2023-07-02T14:21:16;8.68;;;3.10;;
72369;SDS011;60343;-32.030;115.880;2023-07-02T14:23:51;9.90;;;2.92;;
72369;SDS011;60343;-32.030;115.880;2023-07-02T14:26:26;8.45;;;2.88;;
72369;SDS011;60343;-32.030;115.880;2023-07-02T14:29:02;7.28;;;2.72;;
72369;SDS011;60343;-32.030;115.880;2023-07-02T14:31:43;7.18;;;2.63;;
72369;SDS011;60343;-32.030;115.880;2023-07-02T14:34:18;8.85;;;3.20;;
72369;SDS011;60343;-32.030;115.880;2023-07-02T14:36:55;7.60;;;2.40;;
72369;SDS011;60343;-32.030;115.880;2023-07-02T14:39:30;7.22;;;2.65;;
72369;SDS011;60343;-32.030;115.880;2023-07-02T14:42:06;8.02;;;2.38;;
72369;SDS011;60343;-32.030;115.880;2023-07-02T14:44:41;8.05;;;2.67;;
72369;SDS011;60343;-32.030;115.880;2023-07-02T14:47:22;7.40;;;2.00;;
72369;SDS011;60343;-32.030;115.880;2023-07-02T14:49:58;7.32;;;2.25;;
72369;SDS011;60343;-32.030;115.880;2023-07-02T14:52:33;4.72;;;1.83;;
72369;SDS011;60343;-32.030;115.880;2023-07-02T14:55:09;7.78;;;2.35;;
72369;SDS011;60343;-32.030;115.880;2023-07-02T14:57:45;7.25;;;2.22;;
72369;SDS011;60343;-32.030;115.880;2023-07-02T15:00:20;10.18;;;1.95;;
72369;SDS011;60343;-32.030;115.880;2023-07-02T15:03:03;6.00;;;2.03;;
72369;SDS011;60343;-32.030;115.880;2023-07-02T15:05:39;6.68;;;1.70;;